createdAt,value
2022-12-04T00:00:14.567Z,89.79
2022-12-04T00:02:41.590Z,89.67
2022-12-04T00:05:09.665Z,89.69
2022-12-04T00:07:36.444Z,89.86
2022-12-04T00:10:03.898Z,89.66
2022-12-04T00:12:30.471Z,89.72
2022-12-04T00:17:47.983Z,89.86
2022-12-04T00:20:15.038Z,89.69
2022-12-04T00:22:41.555Z,89.81
2022-12-04T00:25:08.640Z,89.61
2022-12-04T00:27:35.107Z,89.94
2022-12-04T00:30:01.926Z,89.79
2022-12-04T00:32:28.402Z,89.69
2022-12-04T00:34:54.937Z,89.87
2022-12-04T00:37:21.471Z,90.06
2022-12-04T00:39:48.003Z,90.11
2022-12-04T00:42:14.482Z,89.89
2022-12-04T00:44:41.164Z,89.76
2022-12-04T00:47:07.655Z,89.77
2022-12-04T00:49:34.516Z,90.08
2022-12-04T00:52:01.033Z,90.02
2022-12-04T00:54:27.519Z,89.85
2022-12-04T00:56:53.988Z,90.26
2022-12-04T00:59:20.587Z,90.09
2022-12-04T01:01:47.087Z,90.41
2022-12-04T01:04:13.649Z,90.42
2022-12-04T01:06:40.208Z,90.60
2022-12-04T01:09:06.856Z,90.18
2022-12-04T01:11:34.094Z,90.66
2022-12-04T01:14:01.255Z,90.37
2022-12-04T01:16:32.889Z,90.36
2022-12-04T01:18:59.848Z,90.45
2022-12-04T01:21:27.174Z,90.71
2022-12-04T01:23:53.790Z,90.83
2022-12-04T01:26:20.819Z,90.69
2022-12-04T01:28:47.339Z,90.41
2022-12-04T01:31:17.043Z,90.60
2022-12-04T01:33:44.268Z,90.85
2022-12-04T01:36:14.579Z,91.08
2022-12-04T01:38:41.382Z,90.65
2022-12-04T01:41:10.673Z,90.74
2022-12-04T01:43:38.703Z,90.52
2022-12-04T01:46:06.167Z,90.99
2022-12-04T01:48:34.708Z,90.44
2022-12-04T01:51:25.349Z,91.28
2022-12-04T01:53:59.266Z,90.80
2022-12-04T01:56:32.761Z,90.84
2022-12-04T01:59:02.395Z,90.88
2022-12-04T02:01:36.288Z,90.91
2022-12-04T02:04:03.377Z,90.66
2022-12-04T02:06:29.988Z,91.04
2022-12-04T02:08:56.490Z,90.83
2022-12-04T02:11:23.056Z,90.83
2022-12-04T02:13:49.556Z,90.63
2022-12-04T02:16:22.789Z,90.65
2022-12-04T02:19:10.680Z,90.58
2022-12-04T02:21:40.463Z,90.89
2022-12-04T02:24:21.353Z,91.03
2022-12-04T02:26:58.780Z,90.86
2022-12-04T02:29:41.162Z,91.08
2022-12-04T02:32:23.884Z,91.29
2022-12-04T02:35:02.620Z,91.44
2022-12-04T02:37:40.129Z,91.15
2022-12-04T02:40:14.139Z,91.10
2022-12-04T02:42:45.035Z,91.20
2022-12-04T02:45:16.454Z,91.19
2022-12-04T02:47:45.712Z,91.44
2022-12-04T02:50:16.932Z,91.00
2022-12-04T02:52:50.313Z,91.16
2022-12-04T02:55:23.496Z,91.29
2022-12-04T02:57:54.210Z,91.61
2022-12-04T03:00:22.009Z,91.54
2022-12-04T03:02:59.666Z,91.85
2022-12-04T03:05:43.454Z,91.56
2022-12-04T03:08:17.450Z,91.24
2022-12-04T03:10:51.227Z,91.44
2022-12-04T03:13:26.425Z,91.40
2022-12-04T03:16:01.362Z,91.45
2022-12-04T03:18:37.769Z,91.49
2022-12-04T03:21:18.087Z,91.56
2022-12-04T03:23:49.367Z,91.63
2022-12-04T03:26:24.006Z,91.55
2022-12-04T03:29:00.583Z,91.47
2022-12-04T03:31:54.224Z,91.72
2022-12-04T03:34:31.180Z,91.95
2022-12-04T03:37:04.097Z,91.73
2022-12-04T03:39:40.038Z,91.89
2022-12-04T03:42:18.249Z,91.96
2022-12-04T03:44:51.703Z,92.00
2022-12-04T03:47:29.848Z,92.38
2022-12-04T03:50:08.577Z,91.84
2022-12-04T03:52:51.152Z,92.17
2022-12-04T03:55:26.986Z,92.27
2022-12-04T03:57:58.741Z,92.34
2022-12-04T04:00:25.570Z,92.18
2022-12-04T04:03:03.682Z,91.99
2022-12-04T04:05:31.747Z,92.36
2022-12-04T04:08:21.393Z,92.56
2022-12-04T04:10:50.741Z,92.42
2022-12-04T04:13:40.794Z,92.31
2022-12-04T04:16:30.520Z,92.85
2022-12-04T04:19:18.354Z,92.73
2022-12-04T04:22:05.965Z,92.21
2022-12-04T04:24:43.532Z,92.30
2022-12-04T04:27:10.259Z,92.41
2022-12-04T04:29:37.552Z,92.48
2022-12-04T04:32:11.491Z,92.64
2022-12-04T04:34:56.431Z,92.68
2022-12-04T04:37:36.874Z,92.67
2022-12-04T04:40:09.795Z,92.99
2022-12-04T04:42:47.231Z,92.82
2022-12-04T04:45:31.722Z,93.15
2022-12-04T04:48:46.144Z,93.09
2022-12-04T04:51:13.285Z,93.33
2022-12-04T04:53:46.947Z,92.93
2022-12-04T04:56:14.369Z,93.12
2022-12-04T04:58:41.836Z,92.92
2022-12-04T05:01:14.902Z,93.00
2022-12-04T05:03:42.606Z,92.99
2022-12-04T05:06:09.769Z,93.37
2022-12-04T05:08:36.702Z,92.90
2022-12-04T05:11:04.105Z,93.39
2022-12-04T05:13:31.829Z,92.98
2022-12-04T05:16:00.666Z,92.91
2022-12-04T05:18:27.641Z,92.97
2022-12-04T05:20:54.470Z,92.91
2022-12-04T05:23:21.130Z,93.28
2022-12-04T05:25:47.734Z,93.27
2022-12-04T05:28:14.541Z,93.16
2022-12-04T05:30:42.074Z,93.41
2022-12-04T05:33:10.625Z,92.96
2022-12-04T05:35:37.129Z,93.84
2022-12-04T05:38:03.766Z,93.34
2022-12-04T05:40:30.271Z,93.47
2022-12-04T05:42:57.501Z,93.61
2022-12-04T05:45:23.984Z,93.31
2022-12-04T05:47:50.579Z,93.13
2022-12-04T05:50:17.192Z,93.31
2022-12-04T05:52:43.699Z,93.51
2022-12-04T05:55:10.229Z,92.97
2022-12-04T05:57:36.673Z,93.16
2022-12-04T06:00:04.960Z,93.09
2022-12-04T06:02:33.628Z,93.22
2022-12-04T06:05:00.171Z,93.36
2022-12-04T06:07:26.753Z,93.29
2022-12-04T06:09:55.496Z,93.07
2022-12-04T06:12:22.353Z,92.80
2022-12-04T06:14:48.908Z,92.77
2022-12-04T06:17:15.490Z,93.05
2022-12-04T06:19:41.975Z,93.09
2022-12-04T06:22:08.612Z,93.07
2022-12-04T06:24:35.214Z,92.83
2022-12-04T06:27:26.600Z,93.14
2022-12-04T06:29:48.333Z,92.98
2022-12-04T06:32:19.646Z,93.34
2022-12-04T06:34:51.954Z,93.32
2022-12-04T06:37:19.656Z,93.05
2022-12-04T06:39:46.235Z,92.86
2022-12-04T06:42:12.800Z,92.96
2022-12-04T06:44:39.430Z,93.17
2022-12-04T06:47:06.118Z,92.69
2022-12-04T06:49:32.609Z,93.15
2022-12-04T06:51:59.202Z,92.99
2022-12-04T06:54:26.212Z,92.91
2022-12-04T06:56:52.690Z,92.92
2022-12-04T06:59:19.311Z,92.74
2022-12-04T07:01:45.799Z,93.02
2022-12-04T07:04:12.354Z,92.77
2022-12-04T07:06:40.185Z,92.93
2022-12-04T07:09:13.266Z,92.86
2022-12-04T07:11:40.766Z,93.34
2022-12-04T07:14:07.609Z,93.50
2022-12-04T07:16:40.324Z,93.32
2022-12-04T07:19:07.634Z,93.24
2022-12-04T07:21:34.678Z,93.29
2022-12-04T07:24:01.836Z,93.10
2022-12-04T07:26:30.678Z,93.38
2022-12-04T07:28:57.452Z,93.78
2022-12-04T07:31:25.934Z,93.17
2022-12-04T07:33:54.090Z,92.94
2022-12-04T07:36:22.144Z,93.46
2022-12-04T07:38:49.297Z,93.48
2022-12-04T07:41:16.271Z,93.58
2022-12-04T07:43:43.163Z,93.72
2022-12-04T07:46:16.864Z,93.74
2022-12-04T07:48:44.037Z,93.27
2022-12-04T07:51:17.641Z,93.77
2022-12-04T07:53:44.901Z,93.48
2022-12-04T07:56:12.912Z,93.48
2022-12-04T07:58:40.292Z,93.73
2022-12-04T08:01:12.415Z,93.75
2022-12-04T08:03:46.684Z,93.67
2022-12-04T08:06:15.910Z,93.58
2022-12-04T08:08:42.511Z,94.01
2022-12-04T08:11:12.869Z,93.67
2022-12-04T08:13:39.431Z,93.74
2022-12-04T08:16:07.707Z,93.22
2022-12-04T08:18:34.622Z,93.79
2022-12-04T08:21:13.963Z,93.63
2022-12-04T08:23:42.745Z,93.62
2022-12-04T08:26:11.098Z,93.47
2022-12-04T08:28:38.052Z,93.85
2022-12-04T08:31:12.955Z,93.67
2022-12-04T08:33:40.443Z,93.42
2022-12-04T08:36:09.582Z,93.63
2022-12-04T08:38:36.433Z,93.53
2022-12-04T08:41:05.040Z,93.27
2022-12-04T08:43:31.830Z,93.52
2022-12-04T08:46:00.004Z,93.25
2022-12-04T08:48:27.391Z,93.51
2022-12-04T08:50:54.438Z,93.71
2022-12-04T08:53:21.614Z,93.45
2022-12-04T08:55:48.269Z,93.89
2022-12-04T08:58:14.917Z,93.74
2022-12-04T09:00:41.738Z,93.66
2022-12-04T09:03:13.215Z,93.93
2022-12-04T09:05:40.054Z,93.98
2022-12-04T09:08:06.620Z,94.27
2022-12-04T09:10:36.073Z,94.77
2022-12-04T09:13:02.946Z,95.09
2022-12-04T09:15:29.868Z,94.91
2022-12-04T09:17:56.379Z,94.80
2022-12-04T09:20:22.911Z,95.25
2022-12-04T09:23:03.322Z,95.14
2022-12-04T09:25:30.734Z,95.14
2022-12-04T09:27:57.235Z,95.74
2022-12-04T09:30:23.782Z,95.22
2022-12-04T09:32:50.306Z,95.61
2022-12-04T09:35:16.973Z,95.68
2022-12-04T09:37:43.534Z,96.18
2022-12-04T09:40:35.158Z,95.86
2022-12-04T09:43:33.694Z,96.10
2022-12-04T09:46:08.008Z,95.81
2022-12-04T09:48:37.471Z,95.80
2022-12-04T09:51:06.945Z,96.35
2022-12-04T09:53:46.154Z,96.10
2022-12-04T09:56:17.413Z,96.09
2022-12-04T09:58:55.288Z,96.03
2022-12-04T10:01:31.354Z,96.23
2022-12-04T10:04:04.273Z,95.84
2022-12-04T10:06:39.758Z,96.19
2022-12-04T10:09:12.438Z,95.93
2022-12-04T10:11:57.719Z,95.48
2022-12-04T10:14:33.431Z,95.74
2022-12-04T10:17:33.329Z,95.20
2022-12-04T10:20:18.724Z,95.09
2022-12-04T10:23:33.852Z,95.06
2022-12-04T10:26:03.117Z,95.08
2022-12-04T10:28:48.326Z,94.21
2022-12-04T10:31:17.254Z,94.44
2022-12-04T10:33:52.977Z,93.82
2022-12-04T10:36:28.262Z,93.58
2022-12-04T10:39:03.714Z,93.03
2022-12-04T10:41:54.533Z,92.60
2022-12-04T10:44:21.499Z,92.80
2022-12-04T10:46:58.710Z,92.63
2022-12-04T10:49:36.955Z,92.42
2022-12-04T10:52:04.760Z,92.55
2022-12-04T10:54:35.117Z,92.77
2022-12-04T10:57:05.125Z,92.70
2022-12-04T10:59:32.454Z,92.57
2022-12-04T11:02:23.312Z,92.51
2022-12-04T11:04:59.016Z,92.19
2022-12-04T11:07:43.015Z,92.76
2022-12-04T11:10:23.694Z,91.98
2022-12-04T11:12:58.881Z,92.19
2022-12-04T11:15:25.668Z,92.24
2022-12-04T11:17:53.049Z,92.14
2022-12-04T11:20:27.780Z,92.55
2022-12-04T11:22:59.243Z,92.51
2022-12-04T11:25:30.391Z,92.50
2022-12-04T11:28:00.603Z,92.53
2022-12-04T11:30:36.966Z,92.10
2022-12-04T11:33:07.089Z,91.84
2022-12-04T11:35:33.822Z,92.21
2022-12-04T11:38:15.270Z,92.00
2022-12-04T11:40:50.552Z,92.15
2022-12-04T11:43:18.724Z,92.54
2022-12-04T11:46:02.836Z,92.33
2022-12-04T11:48:32.182Z,91.41
2022-12-04T11:51:16.106Z,91.35
2022-12-04T11:53:50.742Z,91.49
2022-12-04T11:56:24.555Z,91.21
2022-12-04T11:59:00.154Z,90.98
2022-12-04T12:01:50.989Z,91.05
2022-12-04T12:04:33.418Z,91.01
2022-12-04T12:07:17.445Z,91.36
2022-12-04T12:09:52.122Z,91.30
2022-12-04T12:12:53.194Z,90.82
2022-12-04T12:15:31.927Z,91.12
2022-12-04T12:18:10.827Z,91.36
2022-12-04T12:21:03.447Z,90.83
2022-12-04T12:23:48.850Z,90.65
2022-12-04T12:26:17.486Z,90.69
2022-12-04T12:28:52.165Z,90.48
2022-12-04T12:31:45.048Z,90.73
2022-12-04T12:34:18.129Z,90.83
2022-12-04T12:36:50.066Z,90.48
2022-12-04T12:39:23.436Z,90.91
2022-12-04T12:41:55.620Z,90.38
2022-12-04T12:44:39.093Z,90.53
2022-12-04T12:47:38.819Z,90.44
2022-12-04T12:50:15.595Z,91.00
2022-12-04T12:52:51.695Z,90.72
2022-12-04T12:55:36.844Z,91.08
2022-12-04T12:58:13.680Z,91.31
2022-12-04T13:01:15.938Z,91.40
2022-12-04T13:03:55.460Z,90.87
2022-12-04T13:06:32.268Z,91.04
2022-12-04T13:09:25.457Z,91.23
2022-12-04T13:11:58.683Z,91.02
2022-12-04T13:14:25.262Z,91.08
2022-12-04T13:17:00.870Z,91.49
2022-12-04T13:19:36.120Z,91.02
2022-12-04T13:22:43.921Z,90.75
2022-12-04T13:25:13.150Z,91.28
2022-12-04T13:27:56.714Z,91.11
2022-12-04T13:30:27.996Z,91.26
2022-12-04T13:33:12.512Z,91.21
2022-12-04T13:36:12.036Z,91.16
2022-12-04T13:39:03.043Z,90.90
2022-12-04T13:41:35.343Z,90.88
2022-12-04T13:44:07.049Z,91.43
2022-12-04T13:46:49.127Z,91.30
2022-12-04T13:49:19.221Z,91.60
2022-12-04T13:51:47.882Z,91.32
2022-12-04T13:54:14.366Z,91.37
2022-12-04T13:56:47.057Z,90.95
2022-12-04T13:59:32.554Z,91.10
2022-12-04T14:02:24.517Z,91.13
2022-12-04T14:05:01.047Z,91.64
2022-12-04T14:07:34.508Z,91.92
2022-12-04T14:10:21.347Z,91.52
2022-12-04T14:13:03.262Z,91.93
2022-12-04T14:15:36.825Z,91.99
2022-12-04T14:18:09.119Z,91.74
2022-12-04T14:20:35.765Z,92.03
2022-12-04T14:23:10.682Z,91.90
2022-12-04T14:25:38.967Z,91.58
2022-12-04T14:28:26.885Z,92.29
2022-12-04T14:31:45.722Z,91.81
2022-12-04T14:34:34.671Z,92.22
2022-12-04T14:37:05.196Z,92.33
2022-12-04T14:39:36.202Z,92.25
2022-12-04T14:42:16.323Z,92.60
2022-12-04T14:44:45.856Z,92.44
2022-12-04T14:47:28.644Z,92.77
2022-12-04T14:50:13.592Z,93.29
2022-12-04T14:52:48.309Z,93.04
2022-12-04T14:55:29.100Z,93.06
2022-12-04T14:58:30.300Z,93.13
2022-12-04T15:01:20.739Z,92.93
2022-12-04T15:03:53.590Z,92.81
2022-12-04T15:06:21.788Z,93.31
2022-12-04T15:09:15.353Z,93.15
2022-12-04T15:12:11.381Z,92.98
2022-12-04T15:14:46.812Z,93.34
2022-12-04T15:17:15.736Z,93.12
2022-12-04T15:19:43.115Z,93.98
2022-12-04T15:22:28.802Z,93.56
2022-12-04T15:24:56.253Z,93.50
2022-12-04T15:27:30.595Z,93.28
2022-12-04T15:30:00.980Z,93.42
2022-12-04T15:32:30.429Z,93.78
2022-12-04T15:35:09.054Z,93.16
2022-12-04T15:37:36.157Z,93.36
2022-12-04T15:40:07.015Z,93.81
2022-12-04T15:42:49.967Z,93.71
2022-12-04T15:45:19.565Z,93.88
2022-12-04T15:47:46.042Z,94.13
2022-12-04T15:50:15.664Z,93.74
2022-12-04T15:53:20.994Z,94.09
2022-12-04T15:55:51.333Z,94.29
2022-12-04T15:58:30.670Z,94.53
2022-12-04T16:01:04.612Z,94.12
2022-12-04T16:03:37.328Z,93.79
2022-12-04T16:06:07.682Z,94.49
2022-12-04T16:08:40.309Z,93.70
2022-12-04T16:11:22.770Z,94.12
2022-12-04T16:14:01.887Z,93.73
2022-12-04T16:16:28.988Z,93.36
2022-12-04T16:18:55.919Z,93.25
2022-12-04T16:21:29.233Z,93.26
2022-12-04T16:24:01.911Z,93.70
2022-12-04T16:26:28.540Z,94.04
2022-12-04T16:28:55.102Z,93.63
2022-12-04T16:31:23.633Z,94.21
2022-12-04T16:33:50.295Z,93.77
2022-12-04T16:36:17.214Z,93.74
2022-12-04T16:38:43.822Z,93.60
2022-12-04T16:41:14.581Z,94.00
2022-12-04T16:43:41.890Z,93.69
2022-12-04T16:46:16.280Z,93.65
2022-12-04T16:48:43.733Z,93.74
2022-12-04T16:51:24.179Z,93.88
2022-12-04T16:53:52.066Z,94.00
2022-12-04T16:56:19.185Z,94.20
2022-12-04T16:58:45.914Z,94.15
2022-12-04T17:01:21.372Z,94.13
2022-12-04T17:03:48.227Z,94.40
2022-12-04T17:06:14.957Z,93.90
2022-12-04T17:08:41.589Z,93.90
2022-12-04T17:11:12.499Z,94.34
2022-12-04T17:13:39.150Z,93.44
2022-12-04T17:16:05.841Z,93.57
2022-12-04T17:18:32.498Z,94.41
2022-12-04T17:20:59.128Z,93.64
2022-12-04T17:23:27.123Z,93.67
2022-12-04T17:25:53.840Z,93.72
2022-12-04T17:28:20.381Z,93.88
2022-12-04T17:30:47.129Z,94.20
2022-12-04T17:33:13.694Z,93.71
2022-12-04T17:35:43.880Z,93.39
2022-12-04T17:38:10.509Z,93.55
2022-12-04T17:40:37.060Z,93.62
2022-12-04T17:43:03.875Z,93.49
2022-12-04T17:45:30.567Z,93.91
2022-12-04T17:47:57.488Z,94.03
2022-12-04T17:50:24.068Z,93.95
2022-12-04T17:52:50.605Z,94.17
2022-12-04T17:55:17.193Z,93.81
2022-12-04T17:57:43.732Z,93.56
2022-12-04T18:00:10.731Z,94.27
2022-12-04T18:02:37.671Z,93.45
2022-12-04T18:05:04.484Z,93.76
2022-12-04T18:07:31.432Z,94.37
2022-12-04T18:09:58.283Z,94.14
2022-12-04T18:12:25.020Z,94.63
2022-12-04T18:14:51.539Z,94.59
2022-12-04T18:17:20.584Z,93.93
2022-12-04T18:19:47.040Z,94.51
2022-12-04T18:22:13.494Z,94.92
2022-12-04T18:24:40.036Z,94.76
2022-12-04T18:27:08.002Z,94.86
2022-12-04T18:29:34.493Z,95.55
2022-12-04T18:32:01.052Z,95.88
2022-12-04T18:34:27.672Z,96.34
2022-12-04T18:36:54.317Z,96.51
2022-12-04T18:39:23.107Z,96.69
2022-12-04T18:41:50.165Z,96.96
2022-12-04T18:44:17.824Z,97.15
2022-12-04T18:46:44.392Z,97.25
2022-12-04T18:49:11.219Z,97.68
2022-12-04T18:51:40.171Z,97.58
2022-12-04T18:54:21.399Z,98.03
2022-12-04T18:56:48.259Z,98.08
2022-12-04T18:59:26.573Z,98.91
2022-12-04T19:01:54.406Z,98.93
2022-12-04T19:04:23.588Z,98.69
2022-12-04T19:06:54.258Z,98.88
2022-12-04T19:09:40.884Z,99.46
2022-12-04T19:12:10.880Z,99.12
2022-12-04T19:14:38.587Z,99.55
2022-12-04T19:17:05.646Z,99.62
2022-12-04T19:19:32.407Z,100.00
2022-12-04T19:21:59.193Z,100.00
2022-12-04T19:24:25.696Z,100.00
2022-12-04T19:26:53.948Z,100.00
2022-12-04T19:29:20.534Z,100.00
2022-12-04T19:31:47.259Z,100.00
2022-12-04T19:34:13.879Z,100.00
2022-12-04T19:36:41.206Z,100.00
2022-12-04T19:39:07.781Z,100.00
2022-12-04T19:41:35.287Z,100.00
2022-12-04T19:44:07.790Z,100.00
2022-12-04T19:46:41.279Z,100.00
2022-12-04T19:49:08.212Z,100.00
2022-12-04T19:51:37.972Z,100.00
2022-12-04T19:54:05.508Z,100.00
2022-12-04T19:56:33.738Z,100.00
2022-12-04T19:59:06.035Z,100.00
2022-12-04T20:01:35.001Z,100.00
2022-12-04T20:04:05.575Z,100.00
2022-12-04T20:06:37.417Z,100.00
2022-12-04T20:09:06.585Z,100.00
2022-12-04T20:11:33.531Z,100.00
2022-12-04T20:14:01.511Z,100.00
2022-12-04T20:16:30.299Z,100.00
2022-12-04T20:18:57.309Z,100.00
2022-12-04T20:21:30.581Z,100.00
2022-12-04T20:23:59.996Z,100.00
2022-12-04T20:26:31.805Z,100.00
2022-12-04T20:28:59.835Z,100.00
2022-12-04T20:31:28.537Z,100.00
2022-12-04T20:33:56.178Z,100.00
2022-12-04T20:36:24.856Z,100.00
2022-12-04T20:38:58.285Z,100.00
2022-12-04T20:41:25.747Z,100.00
2022-12-04T20:43:52.324Z,100.00
2022-12-04T20:46:23.115Z,100.00
2022-12-04T20:48:50.486Z,100.00
2022-12-04T20:51:18.869Z,100.00
2022-12-04T20:53:46.464Z,100.00
2022-12-04T20:56:13.917Z,100.00
2022-12-04T20:58:41.354Z,100.00
2022-12-04T21:01:10.635Z,100.00
2022-12-04T21:03:37.462Z,100.00
2022-12-04T21:06:04.809Z,100.00
2022-12-04T21:08:51.372Z,100.00
2022-12-04T21:11:17.905Z,100.00
2022-12-04T21:14:02.909Z,100.00
2022-12-04T21:16:29.502Z,100.00
2022-12-04T21:18:56.041Z,100.00
2022-12-04T21:21:22.710Z,100.00
2022-12-04T21:23:49.171Z,100.00
2022-12-04T21:26:15.751Z,100.00
2022-12-04T21:28:42.894Z,100.00
2022-12-04T21:31:10.086Z,100.00
2022-12-04T21:33:36.623Z,100.00
2022-12-04T21:36:08.787Z,100.00
2022-12-04T21:38:37.445Z,100.00
2022-12-04T21:41:05.646Z,100.00
2022-12-04T21:43:33.480Z,100.00
2022-12-04T21:46:09.351Z,100.00
2022-12-04T21:48:37.047Z,100.00
2022-12-04T21:51:21.198Z,100.00
2022-12-04T21:53:54.901Z,100.00
2022-12-04T21:56:22.603Z,100.00
2022-12-04T21:58:49.389Z,100.00
2022-12-04T22:01:18.288Z,100.00
2022-12-04T22:03:45.493Z,100.00
2022-12-04T22:06:12.416Z,100.00
2022-12-04T22:08:40.452Z,100.00
2022-12-04T22:11:11.591Z,100.00
2022-12-04T22:13:38.983Z,100.00
2022-12-04T22:16:08.683Z,100.00
2022-12-04T22:18:36.449Z,100.00
2022-12-04T22:21:08.423Z,100.00
2022-12-04T22:23:35.238Z,100.00
2022-12-04T22:26:16.873Z,100.00
2022-12-04T22:28:43.852Z,100.00
2022-12-04T22:31:15.948Z,100.00
2022-12-04T22:33:43.196Z,100.00
2022-12-04T22:36:12.617Z,100.00
2022-12-04T22:38:52.705Z,100.00
2022-12-04T22:41:26.490Z,100.00
2022-12-04T22:43:53.044Z,100.00
2022-12-04T22:46:19.690Z,100.00
2022-12-04T22:48:46.460Z,100.00
2022-12-04T22:51:20.695Z,100.00
2022-12-04T22:53:53.719Z,100.00
2022-12-04T22:56:22.013Z,100.00
2022-12-04T22:58:49.006Z,100.00
2022-12-04T23:01:17.776Z,100.00
2022-12-04T23:03:45.687Z,100.00
2022-12-04T23:06:13.070Z,100.00
2022-12-04T23:08:40.792Z,100.00
2022-12-04T23:11:11.366Z,100.00
2022-12-04T23:13:38.689Z,100.00
2022-12-04T23:16:09.519Z,100.00
2022-12-04T23:18:36.792Z,100.00
2022-12-04T23:21:09.381Z,100.00
2022-12-04T23:23:38.040Z,100.00
2022-12-04T23:26:05.610Z,100.00
2022-12-04T23:28:32.513Z,100.00
2022-12-04T23:30:59.805Z,99.93
2022-12-04T23:33:26.743Z,99.99
2022-12-04T23:35:57.757Z,99.75
2022-12-04T23:38:25.669Z,99.83
2022-12-04T23:41:11.635Z,99.81
2022-12-04T23:43:38.921Z,99.81
2022-12-04T23:46:10.954Z,99.40
2022-12-04T23:48:39.074Z,99.31
2022-12-04T23:51:05.949Z,99.47
2022-12-04T23:53:32.440Z,99.52
2022-12-04T23:56:08.720Z,99.48
2022-12-04T23:58:36.295Z,99.31
